Schedule Details


Flight Number: CTN422
Departure: Kastela (LDSP) at 07:45
Arrival: Duesseldorf (EDDL) at 09:45
Route: ZDA UL607 BUSET DCT GIMIX DCT BADIT T700 STAUB UL610 LOHRE Z850 ADEMI T854 DOMUX

Weather Information
LDSP 290300Z AUTO 31008KT CAVOK 12/06 Q1008 NOSIG
EDDL 290250Z 24015KT 9999 SCT013 BKN016 04/02 Q1002 TEMPO BKN014
Schedule Frequency

Route Map